createdAt,value
2022-12-27T00:00:02.039Z,3.60
2022-12-27T00:02:28.875Z,3.60
2022-12-27T00:04:55.813Z,3.60
2022-12-27T00:07:22.650Z,3.60
2022-12-27T00:09:49.472Z,3.70
2022-12-27T00:12:16.294Z,3.70
2022-12-27T00:14:43.107Z,3.60
2022-12-27T00:17:09.891Z,3.60
2022-12-27T00:19:36.751Z,3.60
2022-12-27T00:22:05.277Z,3.60
2022-12-27T00:24:32.328Z,3.70
2022-12-27T00:26:59.270Z,3.60
2022-12-27T00:29:26.104Z,3.60
2022-12-27T00:31:52.986Z,3.60
2022-12-27T00:34:19.869Z,3.60
2022-12-27T00:36:46.731Z,3.50
2022-12-27T00:39:13.662Z,3.60
2022-12-27T00:41:40.676Z,3.50
2022-12-27T00:44:07.537Z,3.50
2022-12-27T00:46:34.380Z,3.40
2022-12-27T00:51:29.843Z,3.30
2022-12-27T00:53:56.991Z,3.30
2022-12-27T00:56:29.870Z,3.20
2022-12-27T00:59:01.238Z,3.20
2022-12-27T01:01:32.796Z,3.20
2022-12-27T01:04:00.282Z,3.10
2022-12-27T01:06:30.117Z,3.10
2022-12-27T01:08:58.115Z,3.20
2022-12-27T01:11:26.874Z,3.20
2022-12-27T01:13:59.048Z,3.20
2022-12-27T01:16:28.233Z,3.20
2022-12-27T01:18:55.856Z,3.20
2022-12-27T01:21:27.845Z,3.20
2022-12-27T01:23:55.289Z,3.20
2022-12-27T01:26:24.124Z,3.20
2022-12-27T01:28:51.777Z,3.20
2022-12-27T01:31:24.792Z,3.10
2022-12-27T01:33:56.549Z,3.10
2022-12-27T01:36:25.527Z,3.10
2022-12-27T01:38:52.533Z,3.10
2022-12-27T01:41:53.915Z,3.10
2022-12-27T01:44:39.525Z,3.10
2022-12-27T01:47:22.935Z,3.10
2022-12-27T01:50:11.478Z,3.10
2022-12-27T01:53:12.605Z,3.10
2022-12-27T01:55:46.308Z,3.10
2022-12-27T01:58:41.888Z,3.10
2022-12-27T02:01:23.327Z,3.10
2022-12-27T02:04:04.342Z,3.10
2022-12-27T02:06:32.917Z,3.20
2022-12-27T02:09:10.768Z,3.20
2022-12-27T02:11:53.809Z,3.20
2022-12-27T02:14:35.071Z,3.20
2022-12-27T02:17:08.063Z,3.20
2022-12-27T02:19:40.908Z,3.20
2022-12-27T02:23:12.720Z,3.10
2022-12-27T02:26:02.483Z,3.20
2022-12-27T02:29:06.030Z,3.20
2022-12-27T02:31:50.979Z,3.30
2022-12-27T02:34:26.511Z,3.30
2022-12-27T02:36:59.432Z,3.30
2022-12-27T02:39:27.642Z,3.30
2022-12-27T02:42:15.115Z,3.30
2022-12-27T02:45:01.488Z,3.30
2022-12-27T02:47:47.632Z,3.30
2022-12-27T02:50:34.868Z,3.20
2022-12-27T02:53:33.296Z,3.30
2022-12-27T02:56:37.727Z,3.30
2022-12-27T02:59:29.527Z,3.30
2022-12-27T03:03:21.224Z,3.20
2022-12-27T03:06:26.666Z,3.20
2022-12-27T03:12:07.752Z,3.10
2022-12-27T03:15:05.790Z,3.10
2022-12-27T03:17:41.554Z,3.20
2022-12-27T03:20:32.900Z,3.10
2022-12-27T03:23:21.753Z,3.10
2022-12-27T03:28:47.315Z,3.00
2022-12-27T03:31:46.782Z,3.00
2022-12-27T03:34:39.862Z,3.00
2022-12-27T03:37:34.233Z,3.00
2022-12-27T03:43:13.696Z,3.10
2022-12-27T03:46:16.283Z,3.00
2022-12-27T03:54:10.487Z,3.00
2022-12-27T03:56:38.952Z,3.00
2022-12-27T03:59:06.531Z,3.00
2022-12-27T04:01:33.400Z,2.90
2022-12-27T04:04:00.262Z,3.00
2022-12-27T04:06:27.282Z,3.00
2022-12-27T04:09:12.908Z,3.00
2022-12-27T04:11:58.403Z,3.00
2022-12-27T04:14:43.895Z,3.00
2022-12-27T04:17:29.409Z,3.00
2022-12-27T04:20:14.798Z,2.90
2022-12-27T04:23:00.006Z,2.90
2022-12-27T04:25:45.095Z,2.90
2022-12-27T04:28:30.483Z,2.90
2022-12-27T04:31:15.908Z,2.90
2022-12-27T04:34:00.934Z,2.90
2022-12-27T04:36:27.973Z,2.90
2022-12-27T04:38:54.781Z,2.90
2022-12-27T04:41:40.087Z,2.90
2022-12-27T04:44:25.678Z,3.00
2022-12-27T04:47:11.153Z,2.90
2022-12-27T04:49:56.826Z,3.00
2022-12-27T04:52:43.263Z,2.90
2022-12-27T04:55:20.341Z,2.90
2022-12-27T04:57:47.479Z,3.00
2022-12-27T05:00:34.254Z,2.90
2022-12-27T05:03:05.173Z,3.00
2022-12-27T05:05:32.642Z,2.90
2022-12-27T05:08:18.878Z,3.00
2022-12-27T05:11:04.052Z,3.00
2022-12-27T05:13:49.291Z,3.00
2022-12-27T05:16:16.187Z,3.00
2022-12-27T05:18:43.524Z,3.00
2022-12-27T05:21:10.478Z,3.00
2022-12-27T05:23:58.880Z,2.90
2022-12-27T05:26:31.826Z,2.90
2022-12-27T05:29:00.162Z,2.90
2022-12-27T05:31:28.643Z,2.80
2022-12-27T05:33:55.665Z,2.90
2022-12-27T05:36:22.619Z,2.80
2022-12-27T05:38:49.620Z,2.90
2022-12-27T05:41:16.557Z,2.80
2022-12-27T05:43:43.695Z,2.80
2022-12-27T05:46:17.955Z,2.80
2022-12-27T05:48:45.362Z,2.80
2022-12-27T05:51:16.517Z,2.70
2022-12-27T05:53:43.788Z,2.70
2022-12-27T05:56:19.406Z,2.60
2022-12-27T05:58:47.069Z,2.70
2022-12-27T06:01:17.876Z,2.80
2022-12-27T06:03:45.336Z,2.80
2022-12-27T06:06:12.752Z,2.90
2022-12-27T06:08:40.628Z,2.80
2022-12-27T06:11:15.997Z,2.80
2022-12-27T06:13:49.623Z,2.80
2022-12-27T06:16:16.909Z,2.70
2022-12-27T06:18:44.275Z,2.60
2022-12-27T06:21:19.141Z,2.50
2022-12-27T06:23:47.543Z,2.60
2022-12-27T06:26:20.721Z,2.70
2022-12-27T06:28:49.583Z,2.60
2022-12-27T06:31:18.491Z,2.70
2022-12-27T06:33:46.322Z,2.70
2022-12-27T06:36:16.430Z,2.80
2022-12-27T06:38:43.867Z,2.80
2022-12-27T06:41:13.339Z,2.80
2022-12-27T06:43:40.659Z,2.90
2022-12-27T06:46:17.146Z,3.10
2022-12-27T06:48:45.921Z,3.20
2022-12-27T06:51:14.438Z,3.20
2022-12-27T06:53:41.733Z,3.10
2022-12-27T06:56:12.366Z,3.00
2022-12-27T06:58:39.708Z,2.90
2022-12-27T07:01:15.655Z,3.00
2022-12-27T07:06:30.351Z,2.90
2022-12-27T07:08:59.860Z,3.00
2022-12-27T07:11:26.837Z,2.90
2022-12-27T07:13:55.824Z,2.90
2022-12-27T07:16:28.234Z,3.00
2022-12-27T07:18:57.372Z,3.00
2022-12-27T07:21:27.237Z,3.00
2022-12-27T07:23:54.283Z,3.00
2022-12-27T07:26:29.830Z,2.90
2022-12-27T07:29:01.825Z,2.90
2022-12-27T07:31:32.039Z,2.90
2022-12-27T07:34:02.435Z,2.90
2022-12-27T07:36:35.820Z,2.90
2022-12-27T07:39:02.760Z,2.90
2022-12-27T07:41:29.774Z,2.90
2022-12-27T07:43:56.575Z,2.90
2022-12-27T07:46:26.559Z,3.00
2022-12-27T07:48:55.511Z,2.90
2022-12-27T07:51:23.787Z,3.00
2022-12-27T07:53:51.715Z,3.00
2022-12-27T07:56:26.279Z,3.00
2022-12-27T07:58:56.279Z,3.00
2022-12-27T08:01:25.384Z,3.00
2022-12-27T08:03:52.525Z,2.90
2022-12-27T08:06:33.465Z,3.00
2022-12-27T08:09:04.881Z,3.00
2022-12-27T08:11:31.818Z,3.10
2022-12-27T08:13:58.871Z,3.10
2022-12-27T08:16:26.970Z,3.10
2022-12-27T08:18:54.104Z,3.30
2022-12-27T08:21:20.932Z,3.70
2022-12-27T08:23:47.766Z,4.20
2022-12-27T08:26:14.893Z,4.90
2022-12-27T08:28:42.193Z,5.70
2022-12-27T08:31:11.723Z,6.20
2022-12-27T08:33:41.635Z,6.50
2022-12-27T08:36:36.756Z,6.90
2022-12-27T08:38:58.987Z,6.80
2022-12-27T08:41:25.859Z,7.10
2022-12-27T08:43:52.748Z,7.10
2022-12-27T08:46:19.812Z,7.20
2022-12-27T08:48:50.597Z,7.40
2022-12-27T08:51:30.245Z,7.50
2022-12-27T08:54:00.349Z,7.90
2022-12-27T08:56:27.246Z,8.20
2022-12-27T08:58:54.064Z,8.00
2022-12-27T09:01:21.058Z,7.90
2022-12-27T09:03:48.047Z,8.20
2022-12-27T09:06:19.073Z,8.50
2022-12-27T09:08:47.816Z,9.20
2022-12-27T09:11:18.142Z,10.20
2022-12-27T09:13:45.477Z,10.70
2022-12-27T09:16:18.964Z,11.60
2022-12-27T09:18:50.641Z,11.70
2022-12-27T09:21:19.267Z,11.90
2022-12-27T09:26:17.232Z,10.90
2022-12-27T09:28:44.862Z,10.30
2022-12-27T09:31:13.126Z,10.30
2022-12-27T09:33:40.825Z,10.20
2022-12-27T09:36:20.022Z,10.00
2022-12-27T09:38:48.514Z,9.80
2022-12-27T09:45:08.785Z,10.00
2022-12-27T09:48:02.894Z,10.30
2022-12-27T09:50:49.477Z,10.10
2022-12-27T09:53:26.929Z,9.90
2022-12-27T09:55:57.926Z,9.80
2022-12-27T10:01:34.471Z,8.20
2022-12-27T10:04:03.573Z,7.70
2022-12-27T10:15:09.417Z,5.80
2022-12-27T10:17:57.124Z,5.90
2022-12-27T10:21:10.359Z,5.60
2022-12-27T10:23:42.283Z,5.20
2022-12-27T10:26:21.122Z,5.60
2022-12-27T10:29:20.042Z,5.50
2022-12-27T10:31:47.086Z,5.60
2022-12-27T10:34:17.194Z,5.50
2022-12-27T10:36:45.443Z,5.60
2022-12-27T10:39:20.205Z,5.70
2022-12-27T10:42:14.206Z,5.70
2022-12-27T10:44:41.453Z,5.60
2022-12-27T10:47:08.963Z,5.50
2022-12-27T10:49:36.495Z,5.60
2022-12-27T10:52:18.885Z,5.60
2022-12-27T10:54:56.933Z,5.60
2022-12-27T10:57:34.842Z,5.50
2022-12-27T11:00:17.709Z,5.70
2022-12-27T11:02:55.454Z,5.80
2022-12-27T11:05:31.518Z,5.80
2022-12-27T11:07:58.384Z,5.80
2022-12-27T11:10:29.059Z,5.80
2022-12-27T11:13:07.003Z,5.80
2022-12-27T11:15:37.270Z,5.70
2022-12-27T11:18:20.392Z,5.60
2022-12-27T11:20:51.565Z,5.40
2022-12-27T11:23:21.778Z,6.10
2022-12-27T11:26:06.412Z,5.50
2022-12-27T11:28:47.650Z,5.60
2022-12-27T11:31:27.802Z,5.20
2022-12-27T11:33:59.262Z,5.40
2022-12-27T11:36:33.369Z,5.60
2022-12-27T11:39:00.745Z,5.60
2022-12-27T11:41:42.435Z,5.40
2022-12-27T11:44:17.999Z,5.40
2022-12-27T11:46:58.934Z,5.40
2022-12-27T11:49:37.875Z,5.50
2022-12-27T11:52:41.507Z,5.50
2022-12-27T11:55:51.888Z,5.60
2022-12-27T11:58:55.110Z,5.60
2022-12-27T12:01:58.687Z,5.50
2022-12-27T12:05:04.302Z,5.70
2022-12-27T12:07:39.651Z,5.90
2022-12-27T12:10:22.779Z,5.80
2022-12-27T12:13:34.964Z,5.80
2022-12-27T12:16:17.060Z,5.80
2022-12-27T12:19:04.100Z,5.70
2022-12-27T12:21:52.814Z,5.70
2022-12-27T12:25:05.641Z,5.60
2022-12-27T12:28:55.653Z,5.60
2022-12-27T12:31:18.203Z,5.50
2022-12-27T12:34:00.697Z,5.50
2022-12-27T12:36:55.718Z,5.60
2022-12-27T12:39:59.111Z,5.60
2022-12-27T12:42:52.948Z,5.60
2022-12-27T12:45:31.549Z,5.90
2022-12-27T12:48:13.729Z,5.80
2022-12-27T12:51:02.094Z,5.80
2022-12-27T12:53:50.649Z,5.90
2022-12-27T12:56:58.263Z,6.00
2022-12-27T12:59:49.585Z,6.00
2022-12-27T13:03:13.187Z,5.80
2022-12-27T13:05:57.762Z,5.80
2022-12-27T13:08:53.402Z,5.80
2022-12-27T13:11:38.081Z,5.80
2022-12-27T13:14:55.814Z,5.80
2022-12-27T13:18:25.152Z,6.00
2022-12-27T13:21:34.341Z,6.20
2022-12-27T13:24:36.681Z,6.40
2022-12-27T13:27:37.039Z,6.50
2022-12-27T13:30:20.873Z,6.50
2022-12-27T13:33:15.510Z,6.40
2022-12-27T13:35:54.266Z,6.40
2022-12-27T13:38:39.011Z,6.30
2022-12-27T13:41:58.904Z,6.20
2022-12-27T13:44:49.980Z,6.10
2022-12-27T13:48:16.402Z,6.10
2022-12-27T13:51:15.101Z,6.30
2022-12-27T13:53:50.150Z,6.20
2022-12-27T13:59:49.713Z,6.20
2022-12-27T14:02:37.709Z,6.10
2022-12-27T14:05:39.794Z,6.30
2022-12-27T14:08:40.625Z,6.60
2022-12-27T14:11:35.152Z,7.00
2022-12-27T14:14:03.355Z,7.10
2022-12-27T14:16:53.255Z,7.00
2022-12-27T14:19:58.400Z,6.80
2022-12-27T14:23:03.411Z,6.80
2022-12-27T14:25:48.795Z,6.70
2022-12-27T14:28:59.674Z,6.60
2022-12-27T14:32:34.279Z,6.70
2022-12-27T14:35:12.574Z,6.70
2022-12-27T14:38:10.122Z,6.60
2022-12-27T14:41:07.425Z,6.60
2022-12-27T14:44:14.339Z,6.30
2022-12-27T14:46:56.490Z,6.30
2022-12-27T14:49:55.967Z,6.30
2022-12-27T14:52:43.011Z,6.30
2022-12-27T14:55:38.542Z,6.30
2022-12-27T14:58:41.106Z,6.30
2022-12-27T15:01:29.335Z,6.30
2022-12-27T15:04:33.787Z,6.10
2022-12-27T15:07:41.380Z,6.00
2022-12-27T15:10:33.825Z,5.90
2022-12-27T15:13:18.274Z,5.70
2022-12-27T15:16:16.803Z,5.70
2022-12-27T15:19:24.119Z,5.60
2022-12-27T15:22:06.656Z,5.50
2022-12-27T15:25:05.528Z,5.20
2022-12-27T15:28:07.071Z,5.50
2022-12-27T15:31:00.399Z,5.40
2022-12-27T15:34:01.113Z,5.40
2022-12-27T15:39:33.778Z,5.20
2022-12-27T15:42:18.979Z,5.20
2022-12-27T15:45:10.128Z,5.20
2022-12-27T15:47:45.745Z,5.20
2022-12-27T15:50:54.178Z,5.20
2022-12-27T15:53:56.325Z,5.10
2022-12-27T15:56:32.676Z,5.10
2022-12-27T15:59:35.268Z,5.10
2022-12-27T16:02:17.444Z,5.00
2022-12-27T16:05:02.947Z,4.90
2022-12-27T16:07:48.102Z,5.00
2022-12-27T16:10:48.821Z,4.90
2022-12-27T16:13:41.725Z,4.90
2022-12-27T16:16:33.339Z,4.90
2022-12-27T16:19:22.096Z,4.90
2022-12-27T16:21:49.438Z,4.80
2022-12-27T16:24:22.927Z,4.80
2022-12-27T16:26:55.684Z,4.80
2022-12-27T16:29:32.469Z,4.80
2022-12-27T16:32:23.236Z,4.80
2022-12-27T16:34:55.226Z,4.70
2022-12-27T16:37:30.674Z,4.70
2022-12-27T16:40:19.917Z,4.90
2022-12-27T16:42:58.327Z,4.60
2022-12-27T16:45:40.083Z,4.60
2022-12-27T16:48:28.718Z,4.60
2022-12-27T16:51:10.521Z,4.60
2022-12-27T16:54:23.853Z,4.60
2022-12-27T16:56:50.672Z,4.70
2022-12-27T17:00:03.831Z,4.60
2022-12-27T17:02:47.167Z,4.50
2022-12-27T17:05:16.909Z,4.40
2022-12-27T17:07:52.775Z,4.40
2022-12-27T17:10:28.210Z,4.40
2022-12-27T17:13:14.808Z,4.40
2022-12-27T17:16:01.539Z,4.40
2022-12-27T17:21:29.882Z,4.30
2022-12-27T17:24:05.620Z,4.40
2022-12-27T17:27:07.740Z,4.40
2022-12-27T17:29:40.147Z,4.40
2022-12-27T17:32:34.586Z,4.40
2022-12-27T17:35:28.978Z,4.40
2022-12-27T17:38:14.821Z,4.30
2022-12-27T17:41:03.426Z,4.40
2022-12-27T17:44:18.218Z,4.40
2022-12-27T17:47:15.246Z,4.30
2022-12-27T17:49:42.893Z,4.40
2022-12-27T17:52:36.282Z,4.40
2022-12-27T17:55:41.400Z,4.50
2022-12-27T17:58:13.714Z,4.50
2022-12-27T18:00:59.611Z,4.40
2022-12-27T18:03:37.110Z,4.40
2022-12-27T18:06:05.170Z,4.40
2022-12-27T18:08:36.050Z,4.40
2022-12-27T18:11:05.484Z,4.30
2022-12-27T18:13:38.724Z,4.30
2022-12-27T18:16:19.140Z,4.40
2022-12-27T18:18:51.261Z,4.50
2022-12-27T18:21:28.131Z,4.60
2022-12-27T18:23:56.201Z,4.70
2022-12-27T18:26:35.549Z,4.60
2022-12-27T18:29:02.700Z,4.70
2022-12-27T18:31:49.471Z,4.60
2022-12-27T18:34:27.706Z,4.60
2022-12-27T18:37:23.347Z,4.60
2022-12-27T18:39:55.573Z,4.70
2022-12-27T18:42:31.457Z,4.60
2022-12-27T18:45:04.820Z,4.50
2022-12-27T18:47:39.470Z,4.50
2022-12-27T18:50:24.882Z,4.60
2022-12-27T18:53:23.598Z,4.70
2022-12-27T18:56:00.920Z,4.80
2022-12-27T18:58:28.532Z,4.90
2022-12-27T19:01:24.736Z,5.00
2022-12-27T19:04:17.123Z,5.00
2022-12-27T19:07:12.850Z,4.80
2022-12-27T19:09:50.141Z,4.70
2022-12-27T19:15:43.470Z,4.70
2022-12-27T19:21:06.014Z,4.70
2022-12-27T19:23:39.218Z,4.70
2022-12-27T19:26:18.054Z,4.70
2022-12-27T19:29:17.209Z,4.80
2022-12-27T19:31:52.796Z,4.80
2022-12-27T19:34:21.272Z,4.90
2022-12-27T19:36:49.174Z,5.10
2022-12-27T19:39:29.791Z,5.00
2022-12-27T19:42:01.146Z,5.10
2022-12-27T19:44:29.315Z,5.00
2022-12-27T19:46:56.155Z,5.00
2022-12-27T19:49:42.065Z,5.00
2022-12-27T19:52:23.183Z,5.20
2022-12-27T19:54:52.716Z,4.90
2022-12-27T19:57:19.813Z,4.80
2022-12-27T19:59:46.623Z,4.70
2022-12-27T20:02:13.800Z,4.80
2022-12-27T20:07:20.357Z,4.70
2022-12-27T20:09:47.433Z,4.70
2022-12-27T20:12:16.289Z,4.60
2022-12-27T20:14:43.095Z,4.60
2022-12-27T20:17:09.929Z,4.70
2022-12-27T20:19:36.803Z,4.60
2022-12-27T20:22:05.155Z,4.60
2022-12-27T20:24:33.018Z,4.60
2022-12-27T20:26:59.849Z,5.50
2022-12-27T20:29:27.511Z,4.60
2022-12-27T20:31:56.416Z,4.70
2022-12-27T20:34:23.286Z,4.70
2022-12-27T20:36:52.063Z,4.60
2022-12-27T20:39:18.942Z,4.70
2022-12-27T20:41:45.768Z,4.60
2022-12-27T20:44:14.800Z,4.60
2022-12-27T20:46:41.805Z,4.70
2022-12-27T20:49:08.765Z,4.60
2022-12-27T20:51:35.635Z,4.70
2022-12-27T20:54:03.765Z,4.70
2022-12-27T20:56:30.722Z,4.80
2022-12-27T20:58:57.586Z,4.70
2022-12-27T21:01:26.084Z,4.80
2022-12-27T21:03:56.060Z,4.90
2022-12-27T21:06:28.217Z,4.90
2022-12-27T21:08:57.553Z,4.90
2022-12-27T21:11:31.921Z,4.80
2022-12-27T21:14:01.971Z,5.00
2022-12-27T21:16:31.388Z,4.90
2022-12-27T21:19:02.703Z,5.00
2022-12-27T21:23:58.620Z,4.70
2022-12-27T21:26:29.648Z,4.70
2022-12-27T21:28:57.748Z,4.60
2022-12-27T21:31:25.180Z,4.60
2022-12-27T21:33:52.440Z,4.50
2022-12-27T21:36:22.721Z,4.50
2022-12-27T21:38:49.726Z,4.40
2022-12-27T21:41:23.443Z,4.50
2022-12-27T21:43:51.126Z,4.50
2022-12-27T21:46:27.091Z,4.50
2022-12-27T21:49:00.292Z,4.50
2022-12-27T21:51:28.802Z,4.50
2022-12-27T21:53:56.181Z,4.50
2022-12-27T21:56:24.206Z,4.50
2022-12-27T21:58:51.302Z,4.50
2022-12-27T22:01:24.257Z,4.50
2022-12-27T22:03:53.034Z,4.50
2022-12-27T22:06:32.431Z,4.50
2022-12-27T22:09:06.539Z,4.60
2022-12-27T22:11:35.205Z,4.70
2022-12-27T22:14:02.641Z,4.70
2022-12-27T22:16:36.065Z,4.70
2022-12-27T22:19:07.032Z,4.70
2022-12-27T22:21:36.318Z,4.70
2022-12-27T22:24:05.028Z,4.70
2022-12-27T22:26:37.365Z,4.70
2022-12-27T22:29:06.482Z,4.70
2022-12-27T22:31:37.993Z,4.70
2022-12-27T22:34:06.297Z,4.70
2022-12-27T22:36:34.433Z,4.70
2022-12-27T22:39:02.365Z,4.70
2022-12-27T22:41:35.443Z,4.70
2022-12-27T22:44:06.259Z,4.90
2022-12-27T22:46:58.438Z,4.80
2022-12-27T22:49:21.335Z,5.00
2022-12-27T22:51:48.145Z,4.90
2022-12-27T22:54:14.961Z,4.90
2022-12-27T22:56:42.757Z,4.90
2022-12-27T22:59:16.316Z,4.80
2022-12-27T23:01:45.302Z,4.70
2022-12-27T23:04:14.017Z,4.70
2022-12-27T23:06:41.662Z,4.70
2022-12-27T23:09:09.348Z,4.60
2022-12-27T23:11:40.417Z,4.50
2022-12-27T23:14:15.692Z,4.50
2022-12-27T23:16:48.405Z,4.50
2022-12-27T23:19:19.740Z,4.50
2022-12-27T23:21:47.661Z,4.50
2022-12-27T23:24:14.697Z,4.50
2022-12-27T23:26:41.874Z,4.50
2022-12-27T23:29:13.319Z,4.60
2022-12-27T23:31:54.314Z,4.60
2022-12-27T23:34:28.168Z,4.60
2022-12-27T23:36:59.013Z,4.60
2022-12-27T23:39:26.430Z,4.60
2022-12-27T23:41:53.349Z,4.70
2022-12-27T23:44:33.957Z,4.60
2022-12-27T23:47:05.932Z,4.70
2022-12-27T23:49:33.443Z,4.70
2022-12-27T23:52:00.225Z,4.80
2022-12-27T23:54:27.195Z,4.80
2022-12-27T23:56:53.984Z,4.80
2022-12-27T23:59:20.970Z,4.80
